sensor_id;sensor_type;location;lat;lon;timestamp;temperature;humidity
18287;DHT22;9269;50.838;12.094;2023-07-31T00:00:57;21.30;34.20
18287;DHT22;9269;50.838;12.094;2023-07-31T00:03:26;21.40;34.30
18287;DHT22;9269;50.838;12.094;2023-07-31T00:05:54;21.30;34.40
18287;DHT22;9269;50.838;12.094;2023-07-31T00:08:23;21.30;34.20
18287;DHT22;9269;50.838;12.094;2023-07-31T00:10:51;21.30;34.30
18287;DHT22;9269;50.838;12.094;2023-07-31T00:13:20;21.30;34.10
18287;DHT22;9269;50.838;12.094;2023-07-31T00:15:49;21.40;34.40
18287;DHT22;9269;50.838;12.094;2023-07-31T00:18:19;21.40;34.30
18287;DHT22;9269;50.838;12.094;2023-07-31T00:20:47;21.40;34.40
18287;DHT22;9269;50.838;12.094;2023-07-31T00:23:15;21.40;34.20
18287;DHT22;9269;50.838;12.094;2023-07-31T00:25:44;21.40;34.40
18287;DHT22;9269;50.838;12.094;2023-07-31T00:28:12;21.40;34.40
18287;DHT22;9269;50.838;12.094;2023-07-31T00:30:41;21.40;34.40
18287;DHT22;9269;50.838;12.094;2023-07-31T00:33:09;21.40;34.10
18287;DHT22;9269;50.838;12.094;2023-07-31T00:35:39;21.40;33.90
18287;DHT22;9269;50.838;12.094;2023-07-31T00:38:08;21.40;34.60
18287;DHT22;9269;50.838;12.094;2023-07-31T00:40:36;21.40;34.60
18287;DHT22;9269;50.838;12.094;2023-07-31T00:43:05;21.40;34.50
18287;DHT22;9269;50.838;12.094;2023-07-31T00:45:34;21.40;34.80
18287;DHT22;9269;50.838;12.094;2023-07-31T00:48:03;21.40;34.60
18287;DHT22;9269;50.838;12.094;2023-07-31T00:50:35;21.40;34.50
18287;DHT22;9269;50.838;12.094;2023-07-31T00:53:04;21.40;34.60
18287;DHT22;9269;50.838;12.094;2023-07-31T00:55:32;21.40;34.40
18287;DHT22;9269;50.838;12.094;2023-07-31T00:58:01;21.30;34.40
18287;DHT22;9269;50.838;12.094;2023-07-31T01:00:29;21.40;34.50
18287;DHT22;9269;50.838;12.094;2023-07-31T01:02:58;21.30;34.80
18287;DHT22;9269;50.838;12.094;2023-07-31T01:05:33;21.30;35.20
18287;DHT22;9269;50.838;12.094;2023-07-31T01:08:09;21.30;35.10
18287;DHT22;9269;50.838;12.094;2023-07-31T01:10:46;21.10;35.20
18287;DHT22;9269;50.838;12.094;2023-07-31T01:13:18;21.20;35.60
18287;DHT22;9269;50.838;12.094;2023-07-31T01:15:47;21.20;35.80
18287;DHT22;9269;50.838;12.094;2023-07-31T01:18:16;21.20;35.40
18287;DHT22;9269;50.838;12.094;2023-07-31T01:21:01;21.20;35.90
18287;DHT22;9269;50.838;12.094;2023-07-31T01:23:49;21.20;36.00
18287;DHT22;9269;50.838;12.094;2023-07-31T01:26:22;21.10;35.90
18287;DHT22;9269;50.838;12.094;2023-07-31T01:28:56;21.20;36.20
18287;DHT22;9269;50.838;12.094;2023-07-31T01:31:29;21.20;36.50
18287;DHT22;9269;50.838;12.094;2023-07-31T01:34:00;21.10;37.40
18287;DHT22;9269;50.838;12.094;2023-07-31T01:36:30;21.10;37.10
18287;DHT22;9269;50.838;12.094;2023-07-31T01:38:59;21.10;37.00
18287;DHT22;9269;50.838;12.094;2023-07-31T01:41:29;21.10;37.70
18287;DHT22;9269;50.838;12.094;2023-07-31T01:43:58;21.10;37.80
18287;DHT22;9269;50.838;12.094;2023-07-31T01:46:26;21.00;37.90
18287;DHT22;9269;50.838;12.094;2023-07-31T01:48:54;21.00;38.20
18287;DHT22;9269;50.838;12.094;2023-07-31T01:51:23;21.10;38.80
18287;DHT22;9269;50.838;12.094;2023-07-31T01:53:52;21.20;38.90
18287;DHT22;9269;50.838;12.094;2023-07-31T01:56:20;21.10;39.10
18287;DHT22;9269;50.838;12.094;2023-07-31T01:58:50;21.10;39.00
18287;DHT22;9269;50.838;12.094;2023-07-31T02:01:19;21.10;39.20
18287;DHT22;9269;50.838;12.094;2023-07-31T02:03:47;21.10;39.30
18287;DHT22;9269;50.838;12.094;2023-07-31T02:06:16;20.90;39.70
18287;DHT22;9269;50.838;12.094;2023-07-31T02:08:44;21.00;40.00
18287;DHT22;9269;50.838;12.094;2023-07-31T02:11:13;21.00;39.90
18287;DHT22;9269;50.838;12.094;2023-07-31T02:13:41;20.90;40.10
18287;DHT22;9269;50.838;12.094;2023-07-31T02:16:12;20.80;41.40
18287;DHT22;9269;50.838;12.094;2023-07-31T02:18:40;20.90;40.30
18287;DHT22;9269;50.838;12.094;2023-07-31T02:21:09;20.80;41.30
18287;DHT22;9269;50.838;12.094;2023-07-31T02:23:37;20.70;41.90
18287;DHT22;9269;50.838;12.094;2023-07-31T02:26:06;20.80;42.10
18287;DHT22;9269;50.838;12.094;2023-07-31T02:28:35;20.70;42.50
18287;DHT22;9269;50.838;12.094;2023-07-31T02:31:03;20.60;42.30
18287;DHT22;9269;50.838;12.094;2023-07-31T02:33:33;20.80;42.50
18287;DHT22;9269;50.838;12.094;2023-07-31T02:36:01;20.80;42.60
18287;DHT22;9269;50.838;12.094;2023-07-31T02:38:30;20.70;42.80
18287;DHT22;9269;50.838;12.094;2023-07-31T02:40:58;20.70;42.60
18287;DHT22;9269;50.838;12.094;2023-07-31T02:43:27;20.70;43.10
18287;DHT22;9269;50.838;12.094;2023-07-31T02:45:56;20.60;43.20
18287;DHT22;9269;50.838;12.094;2023-07-31T02:48:24;20.70;43.20
18287;DHT22;9269;50.838;12.094;2023-07-31T02:50:54;20.70;43.30
18287;DHT22;9269;50.838;12.094;2023-07-31T02:53:23;20.70;43.70
18287;DHT22;9269;50.838;12.094;2023-07-31T02:55:51;20.50;43.30
18287;DHT22;9269;50.838;12.094;2023-07-31T02:58:20;20.60;43.50
18287;DHT22;9269;50.838;12.094;2023-07-31T03:00:48;20.50;43.80
18287;DHT22;9269;50.838;12.094;2023-07-31T03:03:17;20.50;43.90
18287;DHT22;9269;50.838;12.094;2023-07-31T03:05:45;20.50;44.10
18287;DHT22;9269;50.838;12.094;2023-07-31T03:08:15;20.60;44.30
18287;DHT22;9269;50.838;12.094;2023-07-31T03:10:43;20.60;44.50
18287;DHT22;9269;50.838;12.094;2023-07-31T03:13:13;20.50;44.20
18287;DHT22;9269;50.838;12.094;2023-07-31T03:15:43;20.60;44.60
18287;DHT22;9269;50.838;12.094;2023-07-31T03:18:12;20.50;44.30
18287;DHT22;9269;50.838;12.094;2023-07-31T03:20:42;20.50;44.30
18287;DHT22;9269;50.838;12.094;2023-07-31T03:23:10;20.50;44.70
18287;DHT22;9269;50.838;12.094;2023-07-31T03:25:42;20.50;44.40
18287;DHT22;9269;50.838;12.094;2023-07-31T03:28:23;20.50;44.70
18287;DHT22;9269;50.838;12.094;2023-07-31T03:30:52;20.40;44.70
18287;DHT22;9269;50.838;12.094;2023-07-31T03:33:21;20.50;44.90
18287;DHT22;9269;50.838;12.094;2023-07-31T03:35:50;20.40;45.20
18287;DHT22;9269;50.838;12.094;2023-07-31T03:38:18;20.40;45.40
18287;DHT22;9269;50.838;12.094;2023-07-31T03:40:48;20.40;45.10
18287;DHT22;9269;50.838;12.094;2023-07-31T03:43:17;20.40;45.60
18287;DHT22;9269;50.838;12.094;2023-07-31T03:45:45;20.40;45.70
18287;DHT22;9269;50.838;12.094;2023-07-31T03:48:14;20.30;45.60
18287;DHT22;9269;50.838;12.094;2023-07-31T03:50:43;20.40;45.70
18287;DHT22;9269;50.838;12.094;2023-07-31T03:53:11;20.40;45.90
18287;DHT22;9269;50.838;12.094;2023-07-31T03:55:40;20.40;45.60
18287;DHT22;9269;50.838;12.094;2023-07-31T03:58:09;20.30;45.60
18287;DHT22;9269;50.838;12.094;2023-07-31T04:00:39;20.30;45.90
18287;DHT22;9269;50.838;12.094;2023-07-31T04:03:08;20.30;46.70
18287;DHT22;9269;50.838;12.094;2023-07-31T04:05:38;20.20;46.70
18287;DHT22;9269;50.838;12.094;2023-07-31T04:08:07;20.30;46.70
18287;DHT22;9269;50.838;12.094;2023-07-31T04:10:36;20.20;46.90
18287;DHT22;9269;50.838;12.094;2023-07-31T04:13:06;20.30;47.00
18287;DHT22;9269;50.838;12.094;2023-07-31T04:15:35;20.30;46.90
18287;DHT22;9269;50.838;12.094;2023-07-31T04:18:04;20.20;47.50
18287;DHT22;9269;50.838;12.094;2023-07-31T04:20:33;20.30;47.00
18287;DHT22;9269;50.838;12.094;2023-07-31T04:23:02;20.30;47.20
18287;DHT22;9269;50.838;12.094;2023-07-31T04:25:30;20.30;47.50
18287;DHT22;9269;50.838;12.094;2023-07-31T04:27:59;20.30;47.70
18287;DHT22;9269;50.838;12.094;2023-07-31T04:30:27;20.30;47.50
18287;DHT22;9269;50.838;12.094;2023-07-31T04:32:57;20.20;47.80
18287;DHT22;9269;50.838;12.094;2023-07-31T04:35:26;20.30;47.70
18287;DHT22;9269;50.838;12.094;2023-07-31T04:37:55;20.30;47.80
18287;DHT22;9269;50.838;12.094;2023-07-31T04:40:24;20.30;47.90
18287;DHT22;9269;50.838;12.094;2023-07-31T04:42:53;20.20;47.90
18287;DHT22;9269;50.838;12.094;2023-07-31T04:45:22;20.30;47.70
18287;DHT22;9269;50.838;12.094;2023-07-31T04:47:50;20.30;47.20
18287;DHT22;9269;50.838;12.094;2023-07-31T04:50:20;20.30;47.60
18287;DHT22;9269;50.838;12.094;2023-07-31T04:52:48;20.20;47.80
18287;DHT22;9269;50.838;12.094;2023-07-31T04:55:17;20.20;48.20
18287;DHT22;9269;50.838;12.094;2023-07-31T04:57:47;20.30;48.30
18287;DHT22;9269;50.838;12.094;2023-07-31T05:00:16;20.30;48.30
18287;DHT22;9269;50.838;12.094;2023-07-31T05:02:44;20.30;48.30
18287;DHT22;9269;50.838;12.094;2023-07-31T05:05:13;20.30;47.80
18287;DHT22;9269;50.838;12.094;2023-07-31T05:07:43;20.40;47.80
18287;DHT22;9269;50.838;12.094;2023-07-31T05:10:12;20.30;48.10
18287;DHT22;9269;50.838;12.094;2023-07-31T05:12:40;20.20;48.00
18287;DHT22;9269;50.838;12.094;2023-07-31T05:15:10;20.20;47.80
18287;DHT22;9269;50.838;12.094;2023-07-31T05:17:38;20.20;48.00
18287;DHT22;9269;50.838;12.094;2023-07-31T05:20:08;20.30;48.40
18287;DHT22;9269;50.838;12.094;2023-07-31T05:22:37;20.30;48.60
18287;DHT22;9269;50.838;12.094;2023-07-31T05:25:08;20.30;48.80
18287;DHT22;9269;50.838;12.094;2023-07-31T05:27:39;20.30;48.50
18287;DHT22;9269;50.838;12.094;2023-07-31T05:30:08;20.30;49.00
18287;DHT22;9269;50.838;12.094;2023-07-31T05:32:37;20.30;48.60
18287;DHT22;9269;50.838;12.094;2023-07-31T05:35:06;20.30;49.20
18287;DHT22;9269;50.838;12.094;2023-07-31T05:37:35;20.40;49.20
18287;DHT22;9269;50.838;12.094;2023-07-31T05:40:05;20.30;49.40
18287;DHT22;9269;50.838;12.094;2023-07-31T05:42:35;20.40;49.70
18287;DHT22;9269;50.838;12.094;2023-07-31T05:45:06;20.40;49.70
18287;DHT22;9269;50.838;12.094;2023-07-31T05:47:35;20.40;49.60
18287;DHT22;9269;50.838;12.094;2023-07-31T05:50:04;20.40;49.50
18287;DHT22;9269;50.838;12.094;2023-07-31T05:52:33;20.50;49.20
18287;DHT22;9269;50.838;12.094;2023-07-31T05:55:01;20.40;49.50
18287;DHT22;9269;50.838;12.094;2023-07-31T05:57:31;20.40;49.80
18287;DHT22;9269;50.838;12.094;2023-07-31T06:00:02;20.40;49.60
18287;DHT22;9269;50.838;12.094;2023-07-31T06:02:30;20.40;49.70
18287;DHT22;9269;50.838;12.094;2023-07-31T06:05:05;20.40;50.00
18287;DHT22;9269;50.838;12.094;2023-07-31T06:07:35;20.50;49.80
18287;DHT22;9269;50.838;12.094;2023-07-31T06:10:05;20.50;50.00
18287;DHT22;9269;50.838;12.094;2023-07-31T06:12:35;20.60;50.40
18287;DHT22;9269;50.838;12.094;2023-07-31T06:15:06;20.50;49.80
18287;DHT22;9269;50.838;12.094;2023-07-31T06:17:35;20.60;49.50
18287;DHT22;9269;50.838;12.094;2023-07-31T06:20:07;20.70;49.40
18287;DHT22;9269;50.838;12.094;2023-07-31T06:22:35;20.80;49.80
18287;DHT22;9269;50.838;12.094;2023-07-31T06:25:05;20.90;49.90
18287;DHT22;9269;50.838;12.094;2023-07-31T06:27:33;20.90;48.70
18287;DHT22;9269;50.838;12.094;2023-07-31T06:30:03;21.10;48.50
18287;DHT22;9269;50.838;12.094;2023-07-31T06:32:33;21.20;48.20
18287;DHT22;9269;50.838;12.094;2023-07-31T06:35:04;21.20;48.20
18287;DHT22;9269;50.838;12.094;2023-07-31T06:37:33;21.20;47.90
18287;DHT22;9269;50.838;12.094;2023-07-31T06:40:05;21.20;47.60
18287;DHT22;9269;50.838;12.094;2023-07-31T06:42:36;21.30;47.30
18287;DHT22;9269;50.838;12.094;2023-07-31T06:45:05;21.30;47.10
18287;DHT22;9269;50.838;12.094;2023-07-31T06:47:36;21.30;47.30
18287;DHT22;9269;50.838;12.094;2023-07-31T06:50:06;21.30;47.00
18287;DHT22;9269;50.838;12.094;2023-07-31T06:52:34;21.40;46.90
18287;DHT22;9269;50.838;12.094;2023-07-31T06:55:15;21.50;46.70
18287;DHT22;9269;50.838;12.094;2023-07-31T06:57:45;21.50;46.40
18287;DHT22;9269;50.838;12.094;2023-07-31T07:00:14;21.50;46.30
18287;DHT22;9269;50.838;12.094;2023-07-31T07:02:46;21.60;46.20
18287;DHT22;9269;50.838;12.094;2023-07-31T07:05:16;21.60;46.00
18287;DHT22;9269;50.838;12.094;2023-07-31T07:07:45;21.70;46.00
18287;DHT22;9269;50.838;12.094;2023-07-31T07:10:14;21.70;45.60
18287;DHT22;9269;50.838;12.094;2023-07-31T07:12:42;21.80;45.80
18287;DHT22;9269;50.838;12.094;2023-07-31T07:15:11;21.90;45.60
18287;DHT22;9269;50.838;12.094;2023-07-31T07:17:40;21.90;45.00
18287;DHT22;9269;50.838;12.094;2023-07-31T07:20:11;21.90;44.80
18287;DHT22;9269;50.838;12.094;2023-07-31T07:22:39;21.90;44.70
18287;DHT22;9269;50.838;12.094;2023-07-31T07:25:11;21.90;45.00
18287;DHT22;9269;50.838;12.094;2023-07-31T07:27:39;21.90;45.10
18287;DHT22;9269;50.838;12.094;2023-07-31T07:30:08;22.00;44.40
18287;DHT22;9269;50.838;12.094;2023-07-31T07:32:37;21.90;44.60
18287;DHT22;9269;50.838;12.094;2023-07-31T07:35:07;21.90;44.60
18287;DHT22;9269;50.838;12.094;2023-07-31T07:37:37;21.90;44.50
18287;DHT22;9269;50.838;12.094;2023-07-31T07:40:07;21.90;44.40
18287;DHT22;9269;50.838;12.094;2023-07-31T07:42:36;22.00;44.10
18287;DHT22;9269;50.838;12.094;2023-07-31T07:45:06;22.00;44.30
18287;DHT22;9269;50.838;12.094;2023-07-31T07:47:35;21.90;44.00
18287;DHT22;9269;50.838;12.094;2023-07-31T07:50:04;21.90;43.90
18287;DHT22;9269;50.838;12.094;2023-07-31T07:52:37;21.90;43.90
18287;DHT22;9269;50.838;12.094;2023-07-31T07:55:06;21.90;43.70
18287;DHT22;9269;50.838;12.094;2023-07-31T07:57:35;22.00;43.90
18287;DHT22;9269;50.838;12.094;2023-07-31T08:00:05;22.00;44.00
18287;DHT22;9269;50.838;12.094;2023-07-31T08:02:34;21.90;43.60
18287;DHT22;9269;50.838;12.094;2023-07-31T08:05:03;22.00;43.80
18287;DHT22;9269;50.838;12.094;2023-07-31T08:07:31;21.90;43.70
18287;DHT22;9269;50.838;12.094;2023-07-31T08:10:01;22.00;43.50
18287;DHT22;9269;50.838;12.094;2023-07-31T08:12:30;22.10;43.70
18287;DHT22;9269;50.838;12.094;2023-07-31T08:14:59;22.10;43.40
18287;DHT22;9269;50.838;12.094;2023-07-31T08:17:28;22.10;43.80
18287;DHT22;9269;50.838;12.094;2023-07-31T08:19:56;22.00;43.50
18287;DHT22;9269;50.838;12.094;2023-07-31T08:22:26;22.10;43.60
18287;DHT22;9269;50.838;12.094;2023-07-31T08:24:54;22.10;43.30
18287;DHT22;9269;50.838;12.094;2023-07-31T08:27:24;22.10;43.20
18287;DHT22;9269;50.838;12.094;2023-07-31T08:29:53;22.00;43.70
18287;DHT22;9269;50.838;12.094;2023-07-31T08:32:21;22.00;43.90
18287;DHT22;9269;50.838;12.094;2023-07-31T08:34:50;22.10;43.90
18287;DHT22;9269;50.838;12.094;2023-07-31T08:37:19;22.10;44.10
18287;DHT22;9269;50.838;12.094;2023-07-31T08:39:47;22.20;44.20
18287;DHT22;9269;50.838;12.094;2023-07-31T08:42:16;22.30;44.00
18287;DHT22;9269;50.838;12.094;2023-07-31T08:44:46;22.40;43.60
18287;DHT22;9269;50.838;12.094;2023-07-31T08:47:16;22.50;43.70
18287;DHT22;9269;50.838;12.094;2023-07-31T08:49:46;22.50;43.30
18287;DHT22;9269;50.838;12.094;2023-07-31T08:52:15;22.60;43.30
18287;DHT22;9269;50.838;12.094;2023-07-31T08:54:44;22.60;43.20
18287;DHT22;9269;50.838;12.094;2023-07-31T08:57:14;22.70;43.10
18287;DHT22;9269;50.838;12.094;2023-07-31T08:59:43;22.70;43.60
18287;DHT22;9269;50.838;12.094;2023-07-31T09:02:15;22.80;43.10
18287;DHT22;9269;50.838;12.094;2023-07-31T09:04:46;22.80;42.90
18287;DHT22;9269;50.838;12.094;2023-07-31T09:07:15;22.80;42.90
18287;DHT22;9269;50.838;12.094;2023-07-31T09:09:45;22.90;43.10
18287;DHT22;9269;50.838;12.094;2023-07-31T09:12:14;23.00;43.00
18287;DHT22;9269;50.838;12.094;2023-07-31T09:14:45;23.10;42.70
18287;DHT22;9269;50.838;12.094;2023-07-31T09:17:15;23.20;42.80
18287;DHT22;9269;50.838;12.094;2023-07-31T09:19:46;23.30;42.30
18287;DHT22;9269;50.838;12.094;2023-07-31T09:22:15;23.30;42.40
18287;DHT22;9269;50.838;12.094;2023-07-31T09:24:44;23.40;42.20
18287;DHT22;9269;50.838;12.094;2023-07-31T09:27:12;23.40;41.80
18287;DHT22;9269;50.838;12.094;2023-07-31T09:29:41;23.50;41.80
18287;DHT22;9269;50.838;12.094;2023-07-31T09:32:17;23.60;42.00
18287;DHT22;9269;50.838;12.094;2023-07-31T09:34:45;23.50;41.60
18287;DHT22;9269;50.838;12.094;2023-07-31T09:37:14;23.70;40.60
18287;DHT22;9269;50.838;12.094;2023-07-31T09:39:47;23.60;41.50
18287;DHT22;9269;50.838;12.094;2023-07-31T09:42:24;23.50;41.90
18287;DHT22;9269;50.838;12.094;2023-07-31T09:44:54;23.40;41.60
18287;DHT22;9269;50.838;12.094;2023-07-31T09:47:27;23.30;41.90
18287;DHT22;9269;50.838;12.094;2023-07-31T09:49:58;23.20;42.30
18287;DHT22;9269;50.838;12.094;2023-07-31T09:52:27;23.10;42.70
18287;DHT22;9269;50.838;12.094;2023-07-31T09:54:57;23.10;42.90
18287;DHT22;9269;50.838;12.094;2023-07-31T09:57:26;23.10;43.10
18287;DHT22;9269;50.838;12.094;2023-07-31T09:59:56;23.10;43.20
18287;DHT22;9269;50.838;12.094;2023-07-31T10:02:28;23.10;43.20
18287;DHT22;9269;50.838;12.094;2023-07-31T10:05:01;23.20;43.30
18287;DHT22;9269;50.838;12.094;2023-07-31T10:07:30;23.20;43.10
18287;DHT22;9269;50.838;12.094;2023-07-31T10:10:04;23.40;42.90
18287;DHT22;9269;50.838;12.094;2023-07-31T10:12:34;23.60;43.30
18287;DHT22;9269;50.838;12.094;2023-07-31T10:15:03;23.90;42.00
18287;DHT22;9269;50.838;12.094;2023-07-31T10:17:35;24.10;41.70
18287;DHT22;9269;50.838;12.094;2023-07-31T10:20:07;24.30;41.40
18287;DHT22;9269;50.838;12.094;2023-07-31T10:22:36;24.40;40.60
18287;DHT22;9269;50.838;12.094;2023-07-31T10:25:08;24.50;41.00
18287;DHT22;9269;50.838;12.094;2023-07-31T10:27:38;24.70;40.20
18287;DHT22;9269;50.838;12.094;2023-07-31T10:30:10;24.80;40.10
18287;DHT22;9269;50.838;12.094;2023-07-31T10:32:41;24.90;40.00
18287;DHT22;9269;50.838;12.094;2023-07-31T10:35:11;25.00;39.00
18287;DHT22;9269;50.838;12.094;2023-07-31T10:37:42;25.10;39.20
18287;DHT22;9269;50.838;12.094;2023-07-31T10:40:18;25.10;38.60
18287;DHT22;9269;50.838;12.094;2023-07-31T10:42:49;25.20;38.80
18287;DHT22;9269;50.838;12.094;2023-07-31T10:45:25;25.20;38.50
18287;DHT22;9269;50.838;12.094;2023-07-31T10:48:00;25.30;38.00
18287;DHT22;9269;50.838;12.094;2023-07-31T10:50:30;25.30;38.10
18287;DHT22;9269;50.838;12.094;2023-07-31T10:53:00;25.30;37.90
18287;DHT22;9269;50.838;12.094;2023-07-31T10:55:31;25.30;36.80
18287;DHT22;9269;50.838;12.094;2023-07-31T10:58:06;25.20;36.50
18287;DHT22;9269;50.838;12.094;2023-07-31T11:00:37;25.20;36.20
18287;DHT22;9269;50.838;12.094;2023-07-31T11:03:09;25.10;36.50
18287;DHT22;9269;50.838;12.094;2023-07-31T11:05:59;25.20;36.00
18287;DHT22;9269;50.838;12.094;2023-07-31T11:08:32;25.20;36.20
18287;DHT22;9269;50.838;12.094;2023-07-31T11:11:08;25.20;36.20
18287;DHT22;9269;50.838;12.094;2023-07-31T11:13:42;25.10;35.90
18287;DHT22;9269;50.838;12.094;2023-07-31T11:16:12;25.20;36.10
18287;DHT22;9269;50.838;12.094;2023-07-31T11:18:44;25.20;35.90
18287;DHT22;9269;50.838;12.094;2023-07-31T11:21:13;25.40;36.10
18287;DHT22;9269;50.838;12.094;2023-07-31T11:23:45;25.60;35.30
18287;DHT22;9269;50.838;12.094;2023-07-31T11:26:14;25.70;35.60
18287;DHT22;9269;50.838;12.094;2023-07-31T11:28:45;25.70;35.00
18287;DHT22;9269;50.838;12.094;2023-07-31T11:31:14;25.70;34.70
18287;DHT22;9269;50.838;12.094;2023-07-31T11:33:44;25.80;35.40
18287;DHT22;9269;50.838;12.094;2023-07-31T11:36:17;25.80;35.70
18287;DHT22;9269;50.838;12.094;2023-07-31T11:38:46;26.00;35.50
18287;DHT22;9269;50.838;12.094;2023-07-31T11:41:16;26.10;35.40
18287;DHT22;9269;50.838;12.094;2023-07-31T11:43:45;26.20;35.00
18287;DHT22;9269;50.838;12.094;2023-07-31T11:46:14;26.20;34.30
18287;DHT22;9269;50.838;12.094;2023-07-31T11:48:44;26.10;34.10
18287;DHT22;9269;50.838;12.094;2023-07-31T11:51:14;26.00;34.20
18287;DHT22;9269;50.838;12.094;2023-07-31T11:53:44;25.90;34.20
18287;DHT22;9269;50.838;12.094;2023-07-31T11:56:16;25.80;34.10
18287;DHT22;9269;50.838;12.094;2023-07-31T11:58:47;25.70;34.10
18287;DHT22;9269;50.838;12.094;2023-07-31T12:01:18;25.60;34.00
18287;DHT22;9269;50.838;12.094;2023-07-31T12:03:50;25.70;33.90
18287;DHT22;9269;50.838;12.094;2023-07-31T12:06:19;25.70;34.00
18287;DHT22;9269;50.838;12.094;2023-07-31T12:08:49;25.60;34.20
18287;DHT22;9269;50.838;12.094;2023-07-31T12:11:18;25.70;34.10
18287;DHT22;9269;50.838;12.094;2023-07-31T12:13:46;25.80;34.10
18287;DHT22;9269;50.838;12.094;2023-07-31T12:16:15;25.90;34.10
18287;DHT22;9269;50.838;12.094;2023-07-31T12:18:43;25.90;34.40
18287;DHT22;9269;50.838;12.094;2023-07-31T12:21:13;25.80;34.50
18287;DHT22;9269;50.838;12.094;2023-07-31T12:23:44;25.80;34.40
18287;DHT22;9269;50.838;12.094;2023-07-31T12:26:14;25.80;35.10
18287;DHT22;9269;50.838;12.094;2023-07-31T12:28:43;25.70;35.10
18287;DHT22;9269;50.838;12.094;2023-07-31T12:31:13;25.70;35.50
18287;DHT22;9269;50.838;12.094;2023-07-31T12:33:43;25.70;35.60
18287;DHT22;9269;50.838;12.094;2023-07-31T12:36:15;25.70;36.10
18287;DHT22;9269;50.838;12.094;2023-07-31T12:38:44;25.60;36.20
18287;DHT22;9269;50.838;12.094;2023-07-31T12:41:13;25.60;36.00
18287;DHT22;9269;50.838;12.094;2023-07-31T12:43:45;25.60;35.90
18287;DHT22;9269;50.838;12.094;2023-07-31T12:46:14;25.60;35.80
18287;DHT22;9269;50.838;12.094;2023-07-31T12:48:43;25.60;36.10
18287;DHT22;9269;50.838;12.094;2023-07-31T12:51:13;25.70;36.10
18287;DHT22;9269;50.838;12.094;2023-07-31T12:53:42;25.70;36.50
18287;DHT22;9269;50.838;12.094;2023-07-31T12:56:10;25.70;37.10
18287;DHT22;9269;50.838;12.094;2023-07-31T12:58:40;25.70;36.20
18287;DHT22;9269;50.838;12.094;2023-07-31T13:01:14;25.80;36.40
18287;DHT22;9269;50.838;12.094;2023-07-31T13:03:43;25.90;35.80
18287;DHT22;9269;50.838;12.094;2023-07-31T13:06:14;25.90;35.70
18287;DHT22;9269;50.838;12.094;2023-07-31T13:08:43;25.90;35.40
18287;DHT22;9269;50.838;12.094;2023-07-31T13:11:11;26.00;35.00
18287;DHT22;9269;50.838;12.094;2023-07-31T13:13:40;25.80;34.80
18287;DHT22;9269;50.838;12.094;2023-07-31T13:16:09;25.80;34.60
18287;DHT22;9269;50.838;12.094;2023-07-31T13:18:38;25.70;34.60
18287;DHT22;9269;50.838;12.094;2023-07-31T13:21:07;25.70;34.40
18287;DHT22;9269;50.838;12.094;2023-07-31T13:23:37;25.70;34.70
18287;DHT22;9269;50.838;12.094;2023-07-31T13:26:05;25.80;34.70
18287;DHT22;9269;50.838;12.094;2023-07-31T13:28:34;25.90;34.40
18287;DHT22;9269;50.838;12.094;2023-07-31T13:31:03;26.00;34.20
18287;DHT22;9269;50.838;12.094;2023-07-31T13:33:31;26.30;33.80
18287;DHT22;9269;50.838;12.094;2023-07-31T13:36:05;26.50;32.60
18287;DHT22;9269;50.838;12.094;2023-07-31T13:38:33;26.70;32.30
18287;DHT22;9269;50.838;12.094;2023-07-31T13:41:03;26.70;32.30
18287;DHT22;9269;50.838;12.094;2023-07-31T13:43:33;26.80;31.60
18287;DHT22;9269;50.838;12.094;2023-07-31T13:46:01;26.90;31.80
18287;DHT22;9269;50.838;12.094;2023-07-31T13:48:34;26.80;31.40
18287;DHT22;9269;50.838;12.094;2023-07-31T13:51:03;26.80;31.30
18287;DHT22;9269;50.838;12.094;2023-07-31T13:53:32;26.90;31.60
18287;DHT22;9269;50.838;12.094;2023-07-31T13:56:00;27.20;31.40
18287;DHT22;9269;50.838;12.094;2023-07-31T13:58:30;27.20;31.80
18287;DHT22;9269;50.838;12.094;2023-07-31T14:00:59;27.30;31.80
18287;DHT22;9269;50.838;12.094;2023-07-31T14:03:28;27.40;31.10
18287;DHT22;9269;50.838;12.094;2023-07-31T14:05:57;27.30;31.20
18287;DHT22;9269;50.838;12.094;2023-07-31T14:08:25;27.40;31.30
18287;DHT22;9269;50.838;12.094;2023-07-31T14:10:54;27.50;31.10
18287;DHT22;9269;50.838;12.094;2023-07-31T14:13:23;27.50;31.30
18287;DHT22;9269;50.838;12.094;2023-07-31T14:15:52;27.80;31.40
18287;DHT22;9269;50.838;12.094;2023-07-31T14:18:21;27.80;31.20
18287;DHT22;9269;50.838;12.094;2023-07-31T14:20:51;27.80;30.90
18287;DHT22;9269;50.838;12.094;2023-07-31T14:23:20;27.70;30.80
18287;DHT22;9269;50.838;12.094;2023-07-31T14:25:49;27.60;30.40
18287;DHT22;9269;50.838;12.094;2023-07-31T14:28:18;27.40;30.80
18287;DHT22;9269;50.838;12.094;2023-07-31T14:30:46;27.30;30.80
18287;DHT22;9269;50.838;12.094;2023-07-31T14:33:16;27.30;30.50
18287;DHT22;9269;50.838;12.094;2023-07-31T14:35:45;27.20;30.60
18287;DHT22;9269;50.838;12.094;2023-07-31T14:38:14;27.00;30.20
18287;DHT22;9269;50.838;12.094;2023-07-31T14:40:42;26.90;30.60
18287;DHT22;9269;50.838;12.094;2023-07-31T14:43:11;26.80;30.50
18287;DHT22;9269;50.838;12.094;2023-07-31T14:45:40;26.80;30.50
18287;DHT22;9269;50.838;12.094;2023-07-31T14:48:08;26.90;31.00
18287;DHT22;9269;50.838;12.094;2023-07-31T14:50:38;27.00;30.30
18287;DHT22;9269;50.838;12.094;2023-07-31T14:53:07;27.20;30.50
18287;DHT22;9269;50.838;12.094;2023-07-31T14:55:36;27.30;29.80
18287;DHT22;9269;50.838;12.094;2023-07-31T14:58:04;27.20;30.00
18287;DHT22;9269;50.838;12.094;2023-07-31T15:00:33;27.30;30.20
18287;DHT22;9269;50.838;12.094;2023-07-31T15:03:03;27.50;30.10
18287;DHT22;9269;50.838;12.094;2023-07-31T15:05:31;27.40;29.80
18287;DHT22;9269;50.838;12.094;2023-07-31T15:08:01;27.60;29.70
18287;DHT22;9269;50.838;12.094;2023-07-31T15:10:30;27.70;29.50
18287;DHT22;9269;50.838;12.094;2023-07-31T15:12:59;27.70;29.80
18287;DHT22;9269;50.838;12.094;2023-07-31T15:15:28;27.70;29.50
18287;DHT22;9269;50.838;12.094;2023-07-31T15:17:56;27.50;29.50
18287;DHT22;9269;50.838;12.094;2023-07-31T15:20:25;27.50;29.40
18287;DHT22;9269;50.838;12.094;2023-07-31T15:22:55;27.50;29.50
18287;DHT22;9269;50.838;12.094;2023-07-31T15:25:25;27.40;29.80
18287;DHT22;9269;50.838;12.094;2023-07-31T15:27:54;27.30;29.50
18287;DHT22;9269;50.838;12.094;2023-07-31T15:30:24;27.20;29.90
18287;DHT22;9269;50.838;12.094;2023-07-31T15:32:52;27.20;29.60
18287;DHT22;9269;50.838;12.094;2023-07-31T15:35:21;27.20;29.90
18287;DHT22;9269;50.838;12.094;2023-07-31T15:37:49;27.00;29.50
18287;DHT22;9269;50.838;12.094;2023-07-31T15:40:18;26.90;29.80
18287;DHT22;9269;50.838;12.094;2023-07-31T15:42:48;26.90;29.60
18287;DHT22;9269;50.838;12.094;2023-07-31T15:45:17;26.80;29.60